• Join FlightAware (Why Join?)
  • Login
  • US Flag 
02:51AM EDT


 

Airport Tracker/Info


-or-


 

Live Flight TrackerFlight Track Log ✈ FFT750 ✈ 15-May-2013 ✈ KGEG - KDEN

Flight Track Log - Related Links

Times and Time Zones

All times are in EDT time to prevent confusion due to time zone crossing. See the FFT750 flight status page for this flight to view local times or setup timezone preferences in your user account.

Time Position Orientation Groundspeed Altitude Reporting Facility
EDT Latitude Longitude Course Direction KTS MPH feet Rate Location/Type
09:37AM 47.5950 -117.5717 160° South 164 189 3,700  Level Seattle Center
09:38AM 47.5458 -117.5450 160° South 235 270 5,100 2,280 Climbing Seattle Center
09:39AM 47.5189 -117.4431 111° Southeast 267 307 8,300 2,700 Climbing Seattle Center
09:40AM 47.4867 -117.3319 113° Southeast 298 343 10,700 2,580 Climbing Seattle Center
09:41AM 47.4461 -117.1828 112° Southeast 336 387 13,600 2,520 Climbing Seattle Center
09:42AM 47.4064 -117.0453 113° Southeast 360 414 15,900 2,100 Climbing Seattle Center
09:43AM 47.3631 -116.9014 114° Southeast 392 451 17,900 2,040 Climbing Seattle Center
09:44AM 47.3194 -116.7489 113° Southeast 404 465 20,100 2,100 Climbing Seattle Center
09:45AM 47.2742 -116.5928 113° Southeast 416 479 22,200 1,980 Climbing Seattle Center
09:46AM 47.2267 -116.4314 113° Southeast 428 493 24,200 1,860 Climbing Seattle Center
09:47AM 47.1786 -116.2678 113° Southeast 435 501 26,000 1,620 Climbing Seattle Center
09:48AM 47.1297 -116.1014 113° Southeast 444 511 27,500 1,440 Climbing Seattle Center
09:49AM 47.0783 -115.9322 114° Southeast 452 520 29,000 1,380 Climbing Seattle Center
09:50AM 47.0256 -115.7583 114° Southeast 465 535 30,300 1,200 Climbing Seattle Center
09:51AM 46.9733 -115.5831 114° Southeast 471 542 31,500 1,320 Climbing Seattle Center
09:52AM 46.9181 -115.4056 114° Southeast 478 550 33,000 1,320 Climbing Seattle Center
09:53AM 46.8578 -115.2067 114° Southeast 476 548 34,200 1,200 Climbing Seattle Center
09:54AM 46.8031 -115.0297 114° Southeast 480 552 35,500 1,200 Climbing Seattle Center
09:55AM 46.7381 -114.8203 114° Southeast 476 548 36,900 600 Climbing Salt Lake Center
09:56AM 46.6850 -114.6517 115° Southeast 463 533 36,900  Level Salt Lake Center
09:57AM 46.6311 -114.4853 115° Southeast 459 528 37,000  Climbing Salt Lake Center
09:58AM 46.5786 -114.3192 115° Southeast 456 525 36,900 -60 Descending Salt Lake Center
10:00AM 46.5250 -114.1514 115° Southeast 458 527 36,900  Level Salt Lake Center
10:01AM 46.4708 -113.9842 115° Southeast 460 529 37,000  Climbing Salt Lake Center
10:02AM 46.4164 -113.8169 115° Southeast 461 531 37,000 -60 Level Salt Lake Center
10:03AM 46.3625 -113.6503 115° Southeast 459 528 36,900 -60 Descending Salt Lake Center
10:04AM 46.2958 -113.4522 116° Southeast 459 528 36,900  Level Salt Lake Center
10:05AM 46.2400 -113.2853 116° Southeast 463 533 36,900  Level Salt Lake Center
10:06AM 46.1817 -113.1156 116° Southeast 459 528 37,000  Climbing Salt Lake Center
10:07AM 46.1256 -112.9475 116° Southeast 464 534 37,000  Level Salt Lake Center
10:08AM 46.0708 -112.7789 115° Southeast 465 535 37,000  Level Salt Lake Center
10:09AM 46.0139 -112.6131 116° Southeast 464 534 37,000  Level Salt Lake Center
10:10AM 45.9578 -112.4483 116° Southeast 460 529 37,000  Level Salt Lake Center
10:11AM 45.9011 -112.2831 116° Southeast 461 531 37,000  Level Salt Lake Center
10:12AM 45.8356 -112.1286 121° Southeast 456 525 37,000  Level Salt Lake Center
10:13AM 45.7408 -111.9631 129° Southeast 450 518 37,000  Level Salt Lake Center
10:14AM 45.6608 -111.8256 130° Southeast 450 518 37,000  Level Salt Lake Center
10:15AM 45.5814 -111.6908 130° Southeast 448 516 37,000  Level Salt Lake Center
10:16AM 45.5006 -111.5556 130° Southeast 451 519 37,000  Level Salt Lake Center
10:17AM 45.4214 -111.4197 130° Southeast 451 519 37,000  Level Salt Lake Center
10:18AM 45.3422 -111.2853 130° Southeast 448 516 37,000  Level Salt Lake Center
10:19AM 45.2458 -111.1247 130° Southeast 448 516 37,000  Level Salt Lake Center
10:20AM 45.1661 -110.9919 130° Southeast 445 512 37,000  Level Salt Lake Center
10:21AM 45.0853 -110.8589 131° Southeast 441 507 37,000  Level Salt Lake Center
10:22AM 45.0075 -110.7319 131° Southeast 444 511 37,000  Level Salt Lake Center
10:23AM 44.9169 -110.5842 131° Southeast 443 510 37,000  Level Salt Lake Center
10:24AM 44.8400 -110.4578 131° Southeast 443 510 37,000  Level Salt Lake Center
10:25AM 44.7622 -110.3314 131° Southeast 444 511 37,000  Level Salt Lake Center
10:26AM 44.6725 -110.1853 131° Southeast 442 509 37,000  Level Salt Lake Center
10:27AM 44.5944 -110.0606 131° Southeast 443 510 37,000  Level Salt Lake Center
10:28AM 44.5056 -109.9178 131° Southeast 436 502 37,000  Level Salt Lake Center
10:29AM 44.4286 -109.7964 132° Southeast 435 501 37,000  Level Salt Lake Center
10:30AM 44.3517 -109.6742 131° Southeast 436 502 37,000  Level Salt Lake Center
10:31AM 44.2617 -109.5314 131° Southeast 438 504 37,000  Level Salt Lake Center
10:32AM 44.1842 -109.4125 132° Southeast 441 507 37,000  Level Salt Lake Center
10:33AM 44.0925 -109.2678 131° Southeast 446 513 37,000  Level Salt Lake Center
10:34AM 44.0131 -109.1431 132° Southeast 449 517 37,000  Level Salt Lake Center
10:35AM 43.9197 -109.0008 132° Southeast 448 516 37,000 -60 Level Salt Lake Center
10:36AM 43.8417 -108.8789 132° Southeast 443 510 36,900 -60 Descending Salt Lake Center
10:37AM 43.7494 -108.7400 133° Southeast 440 506 36,900  Level Salt Lake Center
10:39AM 43.6708 -108.6186 132° Southeast 444 511 37,000  Climbing Salt Lake Center
10:40AM 43.5778 -108.4767 132° Southeast 447 514 37,000  Level Salt Lake Center
10:41AM 43.4983 -108.3567 132° Southeast 444 511 37,000  Level Salt Lake Center
10:42AM 43.3967 -108.2317 138° Southeast 441 507 37,000  Level Salt Lake Center
10:43AM 43.3047 -108.1333 142° Southeast 438 504 37,000  Level Salt Lake Center
10:44AM 43.2122 -108.0358 142° Southeast 440 506 37,000  Level Salt Lake Center
10:45AM 43.1044 -107.9222 142° Southeast 439 505 37,000  Level Salt Lake Center
10:46AM 43.0128 -107.8258 142° Southeast 436 502 37,000  Level Salt Lake Center
10:47AM 42.9022 -107.7097 142° Southeast 435 501 37,000  Level Salt Lake Center
10:48AM 42.8097 -107.6125 142° Southeast 438 504 37,000  Level Salt Lake Center
10:49AM 42.7031 -107.5006 142° Southeast 434 499 37,000  Level Salt Lake Center
10:50AM 42.6108 -107.4039 142° Southeast 436 502 37,000  Level Salt Lake Center
10:51AM 42.5189 -107.3111 143° Southeast 432 497 37,000  Level Salt Lake Center
10:52AM 42.4114 -107.2014 143° Southeast 433 498 37,000  Level Salt Lake Center
10:53AM 42.3039 -107.0897 142° Southeast 436 502 37,000  Level Denver Center
10:54AM 42.1967 -106.9817 143° Southeast 433 498 37,000  Level Denver Center
10:55AM 42.1056 -106.8908 144° Southeast 427 491 37,000 -60 Level Denver Center
10:56AM 41.9989 -106.7822 143° Southeast 428 493 36,900  Descending Denver Center
10:57AM 41.9083 -106.6906 143° Southeast 427 491 37,000  Climbing Denver Center
10:58AM 41.8011 -106.5844 144° Southeast 428 493 37,000  Level Denver Center
10:59AM 41.7103 -106.4944 144° Southeast 432 497 37,000  Level Denver Center
11:00AM 41.6022 -106.3875 143° Southeast 435 501 37,100  Climbing Denver Center
11:02AM 41.4958 -106.2791 143° Southeast  Level FlightAware Approximate
11:02AM 41.3881 -106.2139 143° Southeast 434 499 37,000  Level Denver Center
11:03AM 41.2772 -106.1669 162° South 425 489 37,000 -1,500 Level Denver Center
11:04AM 41.1750 -106.0594 142° Southeast 434 499 34,000 -1,980 Descending Denver Center
11:06AM 41.0856 -105.9511 138° Southeast 451 519 33,000 -540 Descending Denver Center
11:07AM 41.0011 -105.8492 138° Southeast 450 518 33,000 -2,220 Level Denver Center
11:08AM 40.8903 -105.7150 138° Southeast 465 535 28,500 -3,840 Descending Denver Center
11:09AM 40.8122 -105.6194 137° Southeast 478 550 25,100 -3,780 Descending Denver Center
11:10AM 40.6922 -105.4739 137° Southeast 467 537 20,800 -2,700 Descending Denver Center
11:11AM 40.5939 -105.3547 137° Southeast 442 509 19,600 -900 Descending Denver Center
11:12AM 40.5344 -105.2836 138° Southeast 399 459 19,000 -1,260 Descending Denver Center
11:13AM 40.4725 -105.1636 124° Southeast 341 392 17,100 -1,620 Descending Denver Center
11:14AM 40.4372 -105.0425 111° Southeast 331 381 15,700 -960 Descending Denver Center
11:15AM 40.4086 -104.9403 110° East 303 349 15,100 -780 Descending Denver Center
11:16AM 40.3739 -104.8492 117° Southeast 279 321 14,100 -1,140 Descending Denver Center
11:17AM 40.3247 -104.7717 130° Southeast 274 315 12,800 -1,200 Descending Denver Center
11:18AM 40.2567 -104.7347 157° South 265 305 11,700 -1,140 Descending Denver Center
11:19AM 40.1853 -104.6961 158° South 259 298 10,500 -1,080 Descending Denver Center
11:20AM 40.1183 -104.6847 173° South 245 282 9,500 -1,200 Descending Denver Center
11:21AM 40.0450 -104.6853 180° South 245 282 8,100 -1,260 Descending Denver Center
11:22AM 39.9822 -104.6861 181° South 231 266 7,000 -1,020 Descending Denver Center
11:23AM 39.9303 -104.6864 180° South 189 217 6,100 -840 Descending Denver Center
11:24AM 39.8889 -104.6869 181° South 154 177 5,300 -780 Descending Denver Center
11:26AM 39.8617 -104.6732 176° South  Level Estimated
11:33AM 39.8617 -104.6732 176° South  Level Estimated